トビリシ の空港の天気 - METARとTAF

トビリシ国際空港 ( UGTB / TBS ) - ジョージア トビリシ
飛行場実況気象(Metar)
観測時間04/21 04:00 GET (04/21 00:00 UTC)
風向・風速北西 8m/s
視程10km以上
天気現象
なし
気温10℃
湿度66%
気圧1010hPa
METARUGTB 210000Z 32015KT CAVOK 10/04 Q1010 R31L/CLRD70 NOSIG
過去の天気等 Google飛行場航空写真 Wunderground天気予報

過去48時間のMETAR

飛行場予報(TAF)
発表時間: 4/21 03:00 GET (4/20 23:00 UTC)
予報対象時間: 21日4時 GET ~ 22日4時 GET
風向・風速北西 5m/s
視程10km以上
全天の4割程度の積乱雲 雲底高度 910m
全天の8割程度の雲 雲底高度 1,520m
21日4時 GET ~ 21日14時 GET に一時的に
風向・風速北西 10m/s
21日16時 GET ~ 21日18時 GET に徐々に
視程10km以上
なし
TAF UGTB 202300Z 2100/2124 32010KT 9999 SCT030CB BKN050 TX16/2112Z TN09/2101Z
TEMPO 2100/2110 32020KT
BECMG 2112/2114 CAVOK